Time;durP1;ratioP1;P1;durP2;ratioP2;P2;SDS_P1;SDS_P2;PMS_P1;PMS_P2;Temp;Humidity;BMP_temperature;BMP_pressure;BME280_temperature;BME280_humidity;BME280_pressure;Samples;Min_cycle;Max_cycle;Signal;HPM_P1;HPM_P2
2022/08/26 00:02:08;;;;;;;8.30;7.40;;;21.60;99.90;;;;;;5100053;28;20831;-51
2022/08/26 00:04:38;;;;;;;9.80;8.90;;;21.70;99.90;;;;;;5099592;28;20499;-53
2022/08/26 00:07:06;;;;;;;9.10;7.90;;;21.70;99.90;;;;;;5099925;28;20464;-52
2022/08/26 00:09:36;;;;;;;8.77;7.97;;;21.60;99.90;;;;;;5099067;28;20595;-54
2022/08/26 00:12:08;;;;;;;9.03;8.23;;;21.60;99.90;;;;;;5099512;28;20510;-52
2022/08/26 00:14:38;;;;;;;9.53;8.63;;;21.50;99.90;;;;;;5099721;28;20488;-52
2022/08/26 00:17:06;;;;;;;9.20;8.43;;;21.60;99.90;;;;;;5099633;28;20559;-52
2022/08/26 00:19:37;;;;;;;9.50;8.60;;;21.50;99.90;;;;;;5098957;28;20464;-51
2022/08/26 00:22:08;;;;;;;11.00;8.20;;;21.50;99.90;;;;;;5099390;28;20467;-51
2022/08/26 00:24:37;;;;;;;9.77;8.90;;;21.50;99.90;;;;;;5099144;28;20495;-53
2022/08/26 00:27:07;;;;;;;9.80;8.80;;;21.40;99.90;;;;;;5099585;28;20562;-52
2022/08/26 00:29:35;;;;;;;8.53;7.73;;;21.40;99.90;;;;;;5099715;28;20459;-54
2022/08/26 00:32:05;;;;;;;10.03;9.10;;;21.40;99.90;;;;;;5098547;28;20489;-53
2022/08/26 00:34:32;;;;;;;9.57;8.50;;;21.30;99.90;;;;;;5099032;28;20957;-52
2022/08/26 00:37:02;;;;;;;9.70;8.90;;;21.20;99.90;;;;;;5098925;28;20525;-49
2022/08/26 00:39:29;;;;;;;9.73;8.83;;;21.10;99.90;;;;;;5099799;28;20482;-51
2022/08/26 00:41:59;;;;;;;9.60;8.70;;;21.10;99.90;;;;;;5098958;28;20547;-55
2022/08/26 00:44:26;;;;;;;8.97;8.17;;;21.20;99.90;;;;;;5098736;28;20507;-52
2022/08/26 00:47:01;;;;;;;9.70;8.90;;;21.00;99.90;;;;;;5098772;28;20460;-49
2022/08/26 00:49:38;;;;;;;10.07;9.03;;;20.90;99.90;;;;;;5099408;28;20488;-50
2022/08/26 00:52:09;;;;;;;10.27;8.93;;;20.90;99.90;;;;;;5098160;28;20467;-48
2022/08/26 00:54:45;;;;;;;9.97;9.07;;;20.90;99.90;;;;;;5098920;28;20960;-54
2022/08/26 00:57:17;;;;;;;9.93;9.00;;;20.80;99.90;;;;;;5098748;28;20755;-53
2022/08/26 00:59:47;;;;;;;12.37;8.97;;;20.60;99.90;;;;;;5098515;28;20501;-50
2022/08/26 01:02:14;;;;;;;9.30;8.50;;;20.70;99.90;;;;;;5097365;28;20492;-51
2022/08/26 01:04:42;;;;;;;9.33;8.43;;;20.60;99.90;;;;;;5098197;28;20533;-49
2022/08/26 01:07:10;;;;;;;9.93;9.10;;;20.50;99.90;;;;;;5098193;28;20559;-49
2022/08/26 01:09:38;;;;;;;9.10;8.30;;;20.60;99.90;;;;;;5098226;28;20496;-50
2022/08/26 01:12:09;;;;;;;9.37;8.40;;;20.60;99.90;;;;;;5097875;28;20482;-56
2022/08/26 01:14:39;;;;;;;9.10;8.30;;;20.60;99.90;;;;;;5098718;28;20881;-52
2022/08/26 01:17:09;;;;;;;9.37;8.57;;;20.60;99.90;;;;;;5098200;28;20834;-55
2022/08/26 01:19:42;;;;;;;11.13;8.13;;;20.50;99.90;;;;;;5098595;28;20524;-52
2022/08/26 01:22:12;;;;;;;9.03;8.23;;;20.60;99.90;;;;;;5097901;28;20464;-50
2022/08/26 01:24:42;;;;;;;9.17;8.37;;;20.60;99.90;;;;;;5097141;28;20438;-50
2022/08/26 01:27:12;;;;;;;10.00;9.00;;;20.50;99.90;;;;;;5098025;28;20460;-50
2022/08/26 01:29:44;;;;;;;10.70;9.10;;;20.50;99.90;;;;;;5098195;28;20488;-52
2022/08/26 01:32:14;;;;;;;9.10;8.23;;;20.50;99.90;;;;;;5097994;28;20555;-49
2022/08/26 01:34:42;;;;;;;9.40;8.50;;;20.40;99.90;;;;;;5097361;28;20471;-50
2022/08/26 01:37:15;;;;;;;9.47;8.67;;;20.40;99.90;;;;;;5098007;28;20472;-52
2022/08/26 01:39:47;;;;;;;9.13;8.33;;;20.40;99.90;;;;;;5098061;28;20452;-49
2022/08/26 01:42:15;;;;;;;9.23;8.43;;;20.30;99.90;;;;;;5097714;28;20494;-48
2022/08/26 01:44:49;;;;;;;10.33;9.30;;;20.30;99.90;;;;;;5097354;28;20851;-49
2022/08/26 01:47:18;;;;;;;10.30;9.40;;;20.30;99.90;;;;;;5097926;28;20890;-54
2022/08/26 01:49:49;;;;;;;10.30;9.40;;;20.30;99.90;;;;;;5097598;28;20979;-53
2022/08/26 01:52:22;;;;;;;9.90;9.00;;;20.10;99.90;;;;;;5098371;28;20465;-51
2022/08/26 01:54:55;;;;;;;10.00;7.80;;;20.10;99.90;;;;;;5097379;28;20463;-50
2022/08/26 01:57:27;;;;;;;9.60;8.67;;;20.10;99.90;;;;;;5097651;28;20461;-53
2022/08/26 01:59:58;;;;;;;10.30;9.40;;;20.10;99.90;;;;;;5097383;28;20489;-49
2022/08/26 02:02:29;;;;;;;10.93;8.80;;;20.10;99.90;;;;;;5097462;28;20482;-53
2022/08/26 02:05:00;;;;;;;12.37;9.00;;;20.10;99.90;;;;;;5097052;28;20547;-52
2022/08/26 02:07:28;;;;;;;9.97;9.07;;;20.00;99.90;;;;;;5098092;28;20543;-49
2022/08/26 02:09:57;;;;;;;9.87;9.07;;;19.90;99.90;;;;;;5096437;28;20510;-52
2022/08/26 02:12:27;;;;;;;10.70;9.70;;;19.90;99.90;;;;;;5096850;28;20471;-51
2022/08/26 02:14:58;;;;;;;9.77;8.87;;;19.90;99.90;;;;;;5097072;28;20547;-48
2022/08/26 02:17:29;;;;;;;9.43;8.63;;;19.90;99.90;;;;;;5097095;28;20911;-50
2022/08/26 02:20:00;;;;;;;11.50;9.40;;;19.90;99.90;;;;;;5096582;28;20480;-48
2022/08/26 02:22:30;;;;;;;10.23;9.30;;;19.80;99.90;;;;;;5097266;28;20517;-48
2022/08/26 02:25:06;;;;;;;9.30;8.50;;;19.80;99.90;;;;;;5096938;28;20492;-49
2022/08/26 02:27:35;;;;;;;11.13;8.83;;;19.80;99.90;;;;;;5097570;28;20484;-53
2022/08/26 02:30:10;;;;;;;9.93;9.13;;;19.80;99.90;;;;;;5096257;28;20579;-51
2022/08/26 02:32:38;;;;;;;10.83;9.67;;;19.70;99.90;;;;;;5094869;28;20546;-53
2022/08/26 02:35:07;;;;;;;10.10;8.67;;;19.70;99.90;;;;;;5097287;28;20559;-48
2022/08/26 02:37:34;;;;;;;9.90;8.90;;;19.60;99.90;;;;;;5097182;28;20456;-51
2022/08/26 02:40:09;;;;;;;10.37;9.37;;;19.60;99.90;;;;;;5097445;28;20513;-49
2022/08/26 02:42:36;;;;;;;10.47;9.50;;;19.60;99.90;;;;;;5094315;28;20559;-51
2022/08/26 02:45:04;;;;;;;11.40;10.23;;;19.60;99.90;;;;;;5097321;28;20742;-52
2022/08/26 02:47:32;;;;;;;10.73;9.83;;;19.60;99.90;;;;;;5093269;28;20550;-50
2022/08/26 02:50:00;;;;;;;10.37;9.47;;;19.50;99.90;;;;;;5096315;28;20557;-49
2022/08/26 02:52:28;;;;;;;9.70;8.90;;;19.50;99.90;;;;;;5094883;28;20472;-50
2022/08/26 02:54:55;;;;;;;11.43;10.37;;;19.40;99.90;;;;;;5096067;28;20521;-50
2022/08/26 02:57:24;;;;;;;10.93;10.00;;;19.40;99.90;;;;;;5096629;28;20534;-49
2022/08/26 02:59:51;;;;;;;10.30;9.40;;;19.40;99.90;;;;;;5096436;28;20496;-48
2022/08/26 03:02:20;;;;;;;13.50;9.67;;;19.30;99.90;;;;;;5094787;28;20495;-53
2022/08/26 03:04:47;;;;;;;11.33;10.00;;;19.40;99.90;;;;;;5096642;28;20944;-51
2022/08/26 03:07:14;;;;;;;14.53;11.00;;;19.50;99.90;;;;;;5097028;28;20547;-50
2022/08/26 03:09:42;;;;;;;11.63;10.40;;;19.50;99.90;;;;;;5097141;28;20488;-53
2022/08/26 03:12:12;;;;;;;13.00;11.07;;;19.60;99.90;;;;;;5096175;28;20496;-52
2022/08/26 03:14:41;;;;;;;11.93;10.73;;;19.60;99.90;;;;;;5096930;28;20554;-50
2022/08/26 03:17:08;;;;;;;12.83;10.33;;;19.60;99.90;;;;;;5096520;28;20559;-49
2022/08/26 03:19:36;;;;;;;10.03;9.03;;;19.60;99.90;;;;;;5096818;28;20523;-51
2022/08/26 03:22:03;;;;;;;11.93;10.83;;;19.60;99.90;;;;;;5097687;28;20735;-54
2022/08/26 03:24:31;;;;;;;11.67;10.47;;;19.50;99.90;;;;;;5099863;28;20464;-51
2022/08/26 03:27:00;;;;;;;11.43;10.40;;;19.40;99.90;;;;;;5100598;28;20464;-48
2022/08/26 03:32:15;;;;;;;13.60;10.70;;;19.40;99.90;;;;;;5100113;28;20435;-54
2022/08/26 03:34:45;;;;;;;14.10;12.47;;;19.40;99.90;;;;;;5099570;28;20464;-51
2022/08/26 03:37:12;;;;;;;11.60;10.40;;;19.30;99.90;;;;;;5100312;28;20507;-53
2022/08/26 03:39:43;;;;;;;13.80;11.63;;;19.40;99.90;;;;;;5100653;28;20922;-50
2022/08/26 03:42:10;;;;;;;13.83;12.50;;;19.40;99.90;;;;;;5100360;28;20551;-48
2022/08/26 03:44:38;;;;;;;12.97;11.80;;;19.50;99.90;;;;;;5099672;28;20829;-55
2022/08/26 03:47:07;;;;;;;12.97;11.80;;;19.50;99.90;;;;;;5100166;28;20940;-54
2022/08/26 03:49:38;;;;;;;13.87;12.37;;;19.50;99.90;;;;;;5099920;28;20579;-54
2022/08/26 03:52:06;;;;;;;16.63;13.77;;;19.60;99.90;;;;;;5099617;28;20467;-51
2022/08/26 03:54:34;;;;;;;15.57;13.97;;;19.50;99.90;;;;;;5099793;28;20873;-49
2022/08/26 03:57:02;;;;;;;13.20;12.00;;;19.50;99.90;;;;;;5099559;28;20464;-49
2022/08/26 03:59:29;;;;;;;12.10;10.87;;;19.50;99.90;;;;;;5100101;28;20431;-49
2022/08/26 04:01:56;;;;;;;12.00;10.90;;;19.40;99.90;;;;;;5100330;28;20517;-51
2022/08/26 04:04:26;;;;;;;14.33;11.37;;;19.30;99.90;;;;;;5098922;28;20472;-49
2022/08/26 04:07:01;;;;;;;13.70;12.30;;;19.20;99.90;;;;;;5099716;28;20514;-51
2022/08/26 04:09:31;;;;;;;14.17;12.73;;;19.10;99.90;;;;;;5100047;28;20491;-52
2022/08/26 04:12:02;;;;;;;13.93;12.60;;;19.00;99.90;;;;;;5100415;28;20452;-51
2022/08/26 04:14:30;;;;;;;14.67;13.20;;;19.00;99.90;;;;;;5099209;28;20492;-52
2022/08/26 04:16:58;;;;;;;15.07;13.67;;;19.00;99.90;;;;;;5098178;28;20567;-49
2022/08/26 04:19:26;;;;;;;15.67;14.07;;;19.00;99.90;;;;;;5099490;28;20551;-54
2022/08/26 04:21:54;;;;;;;16.10;14.60;;;19.10;99.90;;;;;;5099961;28;20467;-48
2022/08/26 04:24:25;;;;;;;16.77;13.90;;;19.10;99.90;;;;;;5099602;28;20913;-52
2022/08/26 04:26:56;;;;;;;19.73;15.60;;;19.20;99.90;;;;;;5098773;28;20876;-49
2022/08/26 04:29:27;;;;;;;16.17;14.67;;;19.20;99.90;;;;;;5099727;28;20492;-50
2022/08/26 04:31:55;;;;;;;15.57;14.10;;;19.30;99.90;;;;;;5099782;28;20510;-52
2022/08/26 04:34:27;;;;;;;20.63;18.60;;;19.40;99.90;;;;;;5098526;28;20837;-51
2022/08/26 04:36:54;;;;;;;17.47;15.87;;;19.40;99.90;;;;;;5098133;28;20459;-49
2022/08/26 04:39:28;;;;;;;18.27;16.53;;;19.50;99.90;;;;;;5099356;28;20864;-53
2022/08/26 04:41:56;;;;;;;24.87;22.43;;;19.50;99.90;;;;;;5099416;28;20466;-52
2022/08/26 04:44:26;;;;;;;18.50;16.87;;;19.60;99.90;;;;;;5099074;28;20461;-52
2022/08/26 04:46:57;;;;;;;17.03;15.20;;;19.50;99.90;;;;;;5098535;28;20464;-51
2022/08/26 04:49:24;;;;;;;17.43;15.63;;;19.60;99.90;;;;;;5099251;28;20435;-52
2022/08/26 04:51:52;;;;;;;21.33;17.47;;;19.60;99.90;;;;;;5099106;28;20486;-52
2022/08/26 04:54:19;;;;;;;17.10;15.50;;;19.70;99.90;;;;;;5097136;28;20951;-48
2022/08/26 04:56:49;;;;;;;22.60;20.47;;;19.70;99.90;;;;;;5097385;28;20533;-50
2022/08/26 04:59:18;;;;;;;38.20;34.10;;;19.80;99.90;;;;;;5097090;28;20460;-51
2022/08/26 05:01:48;;;;;;;52.03;46.33;;;19.80;1.00;;;;;;5096935;28;20499;-51
2022/08/26 05:04:18;;;;;;;67.37;58.77;;;19.90;1.00;;;;;;5095989;28;20471;-49
2022/08/26 05:06:47;;;;;;;67.50;60.30;;;20.10;1.00;;;;;;5097678;28;20471;-49
2022/08/26 05:09:17;;;;;;;67.30;59.27;;;20.10;1.00;;;;;;5096627;28;20464;-50
2022/08/26 05:11:47;;;;;;;75.87;65.20;;;20.20;1.00;;;;;;5077337;28;20440;-54
2022/08/26 05:14:17;;;;;;;71.83;62.70;;;20.20;1.00;;;;;;5077472;28;20559;-49
2022/08/26 05:16:45;;;;;;;64.93;57.87;;;20.20;1.70;;;;;;5077104;28;20878;-53
2022/08/26 05:19:18;;;;;;;71.27;63.10;;;20.30;1.00;;;;;;5092394;28;20577;-49
2022/08/26 05:21:50;;;;;;;73.13;62.17;;;20.40;1.00;;;;;;5098263;28;20838;-49
2022/08/26 05:24:17;;;;;;;71.40;63.37;;;20.50;1.00;;;;;;5098468;28;20492;-48
2022/08/26 05:26:48;;;;;;;66.70;59.50;;;20.40;1.00;;;;;;5098383;28;20901;-51
2022/08/26 05:29:15;;;;;;;70.27;61.87;;;20.50;1.00;;;;;;5096756;28;20464;-50
2022/08/26 05:31:43;;;;;;;69.67;61.83;;;20.30;1.00;;;;;;5095635;28;20897;-48
2022/08/26 05:34:10;;;;;;;66.63;59.37;;;20.50;7.60;;;;;;5095651;28;20551;-50
2022/08/26 05:36:38;;;;;;;67.10;60.10;;;20.50;1.00;;;;;;5077447;28;20782;-54
2022/08/26 05:39:07;;;;;;;68.47;61.37;;;20.50;1.00;;;;;;5087418;28;20555;-53
2022/08/26 05:41:37;;;;;;;68.13;60.90;;;20.40;1.00;;;;;;5096902;28;20500;-51
2022/08/26 05:44:08;;;;;;;61.53;55.20;;;20.40;2.30;;;;;;5096795;28;20467;-48
2022/08/26 05:46:36;;;;;;;65.23;58.30;;;20.60;1.00;;;;;;5095875;28;20465;-48
2022/08/26 05:49:05;;;;;;;65.73;58.23;;;20.60;1.00;;;;;;5096430;28;20463;-54
2022/08/26 05:51:35;;;;;;;63.37;56.40;;;20.50;1.00;;;;;;5096087;28;20480;-49
2022/08/26 05:54:03;;;;;;;65.67;58.23;;;20.60;1.00;;;;;;5096941;28;20466;-53
2022/08/26 05:56:30;;;;;;;63.27;55.83;;;20.70;1.00;;;;;;5095722;28;20488;-49
2022/08/26 05:59:01;;;;;;;65.60;59.00;;;20.70;1.00;;;;;;5095911;28;20560;-50
2022/08/26 06:01:31;;;;;;;64.07;57.50;;;20.80;1.00;;;;;;5093770;28;20456;-53
2022/08/26 06:04:01;;;;;;;76.80;63.33;;;20.90;1.00;;;;;;5092887;28;20508;-48
2022/08/26 06:06:31;;;;;;;72.97;61.53;;;20.80;1.00;;;;;;5091909;28;20540;-48
2022/08/26 06:09:04;;;;;;;76.33;61.17;;;20.60;1.00;;;;;;5093959;28;20464;-53
2022/08/26 06:11:32;;;;;;;76.60;62.03;;;20.70;1.00;;;;;;5092529;28;20515;-49
2022/08/26 06:14:07;;;;;;;70.57;60.10;;;20.80;1.00;;;;;;5095770;28;20507;-54
2022/08/26 06:16:42;;;;;;;79.90;61.17;;;20.80;1.00;;;;;;5096012;28;20487;-51
2022/08/26 06:19:12;;;;;;;72.20;60.57;;;20.90;1.00;;;;;;5096988;28;20453;-52
2022/08/26 06:21:41;;;;;;;85.27;66.83;;;20.90;1.00;;;;;;5095915;28;20578;-48
2022/08/26 06:27:00;;;;;;;75.90;64.60;;;21.00;1.00;;;;;;5094801;28;20434;-52
2022/08/26 06:29:30;;;;;;;73.13;59.77;;;21.30;1.00;;;;;;5095414;28;20452;-51
2022/08/26 06:31:59;;;;;;;82.17;61.67;;;21.40;1.00;;;;;;5094226;28;20493;-49
2022/08/26 06:34:27;;;;;;;76.57;59.67;;;21.40;1.00;;;;;;5096528;28;20839;-48
2022/08/26 06:36:56;;;;;;;79.03;66.37;;;21.50;1.00;;;;;;5096524;28;20465;-52
2022/08/26 06:39:24;;;;;;;81.23;65.93;;;21.60;1.00;;;;;;5097085;28;20474;-49
2022/08/26 06:41:51;;;;;;;72.87;63.27;;;21.50;1.00;;;;;;5097215;28;20881;-49
2022/08/26 06:44:23;;;;;;;76.77;63.87;;;21.50;1.00;;;;;;5097381;28;20729;-49
2022/08/26 06:46:55;;;;;;;77.03;63.80;;;21.40;1.00;;;;;;5094331;28;20488;-54
2022/08/26 06:49:24;;;;;;;72.20;59.67;;;21.40;1.00;;;;;;5096025;28;20531;-49
2022/08/26 06:51:51;;;;;;;75.07;63.47;;;21.40;1.00;;;;;;5095380;28;20481;-53
2022/08/26 06:54:19;;;;;;;81.33;63.90;;;21.60;1.00;;;;;;5095591;28;20765;-51
2022/08/26 06:56:46;;;;;;;76.27;64.07;;;21.60;1.00;;;;;;5095182;28;20525;-49
2022/08/26 06:59:16;;;;;;;72.60;62.73;;;21.70;1.00;;;;;;5099747;28;20476;-51
2022/08/26 07:01:44;;;;;;;73.53;63.67;;;21.80;1.00;;;;;;5099080;28;20511;-52
2022/08/26 07:04:13;;;;;;;75.90;63.53;;;21.90;1.00;;;;;;5099427;28;20423;-51
2022/08/26 07:06:45;;;;;;;75.10;65.07;;;21.90;1.00;;;;;;5099181;28;20889;-50
2022/08/26 07:09:15;;;;;;;74.10;66.03;;;22.10;1.00;;;;;;5099506;28;20461;-48
2022/08/26 07:11:44;;;;;;;77.50;65.47;;;22.10;1.00;;;;;;5099411;28;20810;-51
2022/08/26 07:14:13;;;;;;;73.93;65.13;;;22.00;1.00;;;;;;5098025;28;20456;-51
2022/08/26 07:16:46;;;;;;;72.70;64.40;;;21.60;1.00;;;;;;5096656;28;20762;-50
2022/08/26 07:19:14;;;;;;;72.67;64.57;;;21.60;1.00;;;;;;5100245;28;20886;-49
2022/08/26 07:21:43;;;;;;;76.20;64.50;;;21.50;1.00;;;;;;5101026;28;20835;-48
2022/08/26 07:24:11;;;;;;;75.60;66.13;;;21.50;1.00;;;;;;5100443;28;20457;-49
2022/08/26 07:26:41;;;;;;;69.37;61.20;;;21.50;1.00;;;;;;5099739;28;20470;-52
2022/08/26 07:29:10;;;;;;;71.17;60.47;;;21.50;1.00;;;;;;5100946;28;20463;-49
2022/08/26 07:31:38;;;;;;;75.63;65.00;;;21.40;1.00;;;;;;5100394;28;20567;-54
2022/08/26 07:34:08;;;;;;;76.93;64.10;;;21.30;1.00;;;;;;5099915;28;20467;-51
2022/08/26 07:36:35;;;;;;;69.27;61.30;;;21.50;1.00;;;;;;5099856;28;20545;-53
2022/08/26 07:39:05;;;;;;;77.67;66.60;;;21.60;1.00;;;;;;5098494;28;20460;-52
2022/08/26 07:41:35;;;;;;;70.53;63.13;;;21.70;1.00;;;;;;5094991;28;20468;-54
2022/08/26 07:44:03;;;;;;;67.97;57.97;;;21.60;1.00;;;;;;5089700;28;20468;-55
2022/08/26 07:46:30;;;;;;;68.70;60.20;;;21.60;1.00;;;;;;5098702;28;20456;-49
2022/08/26 07:48:58;;;;;;;68.03;60.70;;;21.60;1.00;;;;;;5099567;28;20491;-50
2022/08/26 07:51:27;;;;;;;68.53;61.07;;;21.60;1.00;;;;;;5097120;28;20929;-50
2022/08/26 07:54:00;;;;;;;72.70;64.47;;;21.80;1.00;;;;;;5099698;28;20441;-52
2022/08/26 07:56:31;;;;;;;72.93;62.40;;;21.90;1.00;;;;;;5097342;28;20468;-51
2022/08/26 07:59:02;;;;;;;67.73;60.37;;;22.00;1.00;;;;;;5089690;28;20504;-51
2022/08/26 08:01:30;;;;;;;70.67;63.07;;;22.00;1.00;;;;;;5096511;28;20762;-50
2022/08/26 08:03:58;;;;;;;70.83;61.90;;;22.00;1.00;;;;;;5097729;28;20526;-49
2022/08/26 08:06:29;;;;;;;70.87;63.03;;;22.10;1.00;;;;;;5096428;28;20827;-52
2022/08/26 08:09:00;;;;;;;68.53;61.20;;;22.10;1.00;;;;;;5096493;28;20537;-53
2022/08/26 08:11:31;;;;;;;69.57;62.13;;;22.00;1.00;;;;;;5097831;28;20463;-57
2022/08/26 08:13:59;;;;;;;68.13;61.10;;;22.00;1.00;;;;;;5098745;28;20507;-55
2022/08/26 08:16:30;;;;;;;69.13;61.83;;;22.10;1.00;;;;;;5095005;28;20517;-52
2022/08/26 08:18:58;;;;;;;67.07;60.13;;;22.30;1.00;;;;;;5078029;28;20465;-48
2022/08/26 08:21:26;;;;;;;70.90;62.27;;;22.30;99.90;;;;;;5087578;28;20503;-51
2022/08/26 08:23:57;;;;;;;70.73;63.20;;;22.30;1.00;;;;;;5098408;28;20539;-52
2022/08/26 08:26:26;;;;;;;73.97;62.40;;;22.60;1.00;;;;;;5096920;28;20431;-54
2022/08/26 08:28:56;;;;;;;66.80;59.63;;;22.70;99.90;;;;;;5095396;28;20496;-50
2022/08/26 08:31:28;;;;;;;65.33;58.30;;;22.70;99.90;;;;;;5096903;28;20605;-53
2022/08/26 08:33:55;;;;;;;64.50;57.70;;;22.80;99.90;;;;;;5098338;28;20448;-50
2022/08/26 08:36:24;;;;;;;61.60;54.93;;;22.60;99.90;;;;;;5099256;28;20514;-52
2022/08/26 08:38:51;;;;;;;59.03;52.73;;;22.60;99.90;;;;;;5096626;28;20515;-49
2022/08/26 08:41:36;;;;;;;59.20;52.73;;;22.70;99.90;;;;;;5098631;28;20484;-54
2022/08/26 08:44:10;;;;;;;57.13;51.00;;;22.60;99.90;;;;;;5097682;28;20460;-53
2022/08/26 08:46:39;;;;;;;55.77;49.87;;;22.20;99.90;;;;;;5096424;28;20566;-54
2022/08/26 08:49:07;;;;;;;55.53;49.80;;;22.40;99.90;;;;;;5097525;28;20473;-58
2022/08/26 08:51:40;;;;;;;54.93;48.80;;;22.60;99.90;;;;;;5096738;28;20545;-55
2022/08/26 08:54:08;;;;;;;57.13;51.17;;;22.70;99.90;;;;;;5090671;28;20551;-55
2022/08/26 08:56:40;;;;;;;60.97;53.53;;;22.60;99.90;;;;;;5091025;28;20555;-51
2022/08/26 08:59:14;;;;;;;56.07;50.33;;;22.40;99.90;;;;;;5097870;28;20769;-54
2022/08/26 09:01:51;;;;;;;59.27;52.97;;;22.50;99.90;;;;;;5096346;28;20551;-51
2022/08/26 09:04:30;;;;;;;60.50;54.30;;;22.80;99.90;;;;;;5095713;28;20943;-57
2022/08/26 09:07:03;;;;;;;60.20;52.77;;;23.30;99.90;;;;;;5097347;28;20505;-51
2022/08/26 09:09:37;;;;;;;58.77;52.50;;;23.20;99.90;;;;;;5096240;28;20510;-51
2022/08/26 09:12:13;;;;;;;65.73;58.53;;;23.30;99.90;;;;;;5097267;28;20946;-55
2022/08/26 09:14:46;;;;;;;64.87;58.17;;;23.00;99.90;;;;;;5092332;28;21021;-51
2022/08/26 09:17:23;;;;;;;63.67;57.07;;;23.00;99.90;;;;;;5095079;28;20476;-53
2022/08/26 09:19:53;;;;;;;66.43;59.20;;;22.90;99.90;;;;;;5097384;28;20517;-52
2022/08/26 09:22:33;;;;;;;64.90;58.10;;;22.90;99.90;;;;;;5097242;28;20499;-54
2022/08/26 09:25:04;;;;;;;64.57;57.57;;;23.10;99.90;;;;;;5094812;28;20920;-49
2022/08/26 09:27:43;;;;;;;63.87;56.80;;;23.60;99.90;;;;;;5097486;28;20460;-50
2022/08/26 09:30:15;;;;;;;62.57;56.70;;;23.50;99.90;;;;;;5098508;28;20482;-54
2022/08/26 09:32:59;;;;;;;65.87;59.10;;;23.30;99.90;;;;;;5097726;28;20790;-50
2022/08/26 09:35:30;;;;;;;65.23;58.90;;;23.30;99.90;;;;;;5098117;28;20765;-54
2022/08/26 09:37:59;;;;;;;66.67;60.03;;;23.60;99.90;;;;;;5097085;28;20464;-50
2022/08/26 09:40:31;;;;;;;66.23;59.73;;;23.50;99.90;;;;;;5097823;28;20492;-52
2022/08/26 09:43:14;;;;;;;64.63;58.17;;;23.70;99.90;;;;;;5097429;28;20874;-52
2022/08/26 09:45:53;;;;;;;63.03;56.67;;;23.60;99.90;;;;;;5097746;28;20464;-50
2022/08/26 09:48:34;;;;;;;61.50;55.37;;;23.50;99.90;;;;;;5097033;28;20484;-50
2022/08/26 09:51:04;;;;;;;61.50;55.60;;;23.40;99.90;;;;;;5095266;28;20869;-50
2022/08/26 09:53:35;;;;;;;63.67;57.57;;;23.70;99.90;;;;;;5096905;28;20503;-51
2022/08/26 09:56:16;;;;;;;68.17;61.57;;;24.00;99.90;;;;;;5083436;28;20473;-55
2022/08/26 09:58:47;;;;;;;71.40;64.07;;;23.70;99.90;;;;;;5085743;28;20546;-50
2022/08/26 10:01:29;;;;;;;73.80;66.57;;;23.50;99.90;;;;;;5097808;28;20460;-54
2022/08/26 10:04:06;;;;;;;70.97;63.77;;;23.20;99.90;;;;;;5097694;28;20801;-51
2022/08/26 10:06:38;;;;;;;69.43;62.53;;;23.20;99.90;;;;;;5097574;28;20464;-55
2022/08/26 10:09:13;;;;;;;66.47;59.77;;;23.50;99.90;;;;;;5096185;28;20890;-52
2022/08/26 10:11:44;;;;;;;67.27;60.83;;;23.70;99.90;;;;;;5095049;28;20610;-55
2022/08/26 10:14:19;;;;;;;67.00;60.50;;;23.90;99.90;;;;;;5094382;28;20468;-52
2022/08/26 10:16:54;;;;;;;68.67;61.87;;;24.00;99.90;;;;;;5094744;28;20551;-50
2022/08/26 10:19:25;;;;;;;66.87;60.07;;;23.80;99.90;;;;;;5095440;28;20904;-53
2022/08/26 10:21:57;;;;;;;66.00;59.27;;;23.70;99.90;;;;;;5094804;28;20444;-53
2022/08/26 10:24:31;;;;;;;66.87;60.13;;;23.60;99.90;;;;;;5095856;28;20460;-51
2022/08/26 10:27:06;;;;;;;61.53;55.37;;;23.90;99.90;;;;;;5093852;28;20565;-50
2022/08/26 10:29:40;;;;;;;62.23;56.23;;;24.30;99.90;;;;;;5096186;28;20455;-58
2022/08/26 10:32:13;;;;;;;57.67;52.17;;;24.80;99.90;;;;;;5093459;28;20519;-53
2022/08/26 10:34:41;;;;;;;61.43;55.53;;;25.10;99.90;;;;;;5095296;28;20590;-48
2022/08/26 10:37:14;;;;;;;57.40;51.93;;;24.80;99.90;;;;;;5096523;28;20496;-54
2022/08/26 10:39:51;;;;;;;55.97;50.63;;;24.80;99.90;;;;;;5090504;28;20896;-53
2022/08/26 10:42:24;;;;;;;52.83;47.97;;;24.50;99.90;;;;;;5089945;28;20551;-57
2022/08/26 10:44:57;;;;;;;48.33;43.80;;;24.90;99.90;;;;;;5097219;28;20547;-53
2022/08/26 10:47:34;;;;;;;45.93;41.63;;;25.10;99.90;;;;;;5097004;28;20529;-56
2022/08/26 10:50:02;;;;;;;40.17;36.27;;;24.80;99.90;;;;;;5096790;28;20460;-48
2022/08/26 10:52:45;;;;;;;36.07;32.77;;;25.00;99.90;;;;;;5096909;28;20546;-56
2022/08/26 10:55:18;;;;;;;26.53;24.20;;;25.30;99.90;;;;;;5096798;28;20468;-54
2022/08/26 10:57:56;;;;;;;23.33;21.37;;;25.20;99.90;;;;;;5097226;28;20492;-49
2022/08/26 11:03:31;;;;;;;20.77;19.03;;;24.50;99.90;;;;;;5094368;28;20481;-54
2022/08/26 11:06:27;;;;;;;21.47;19.27;;;24.40;99.90;;;;;;5094874;28;20480;-49
2022/08/26 11:08:57;;;;;;;18.13;16.40;;;24.40;99.90;;;;;;5095742;28;20460;-50
2022/08/26 11:11:45;;;;;;;17.63;16.00;;;24.30;99.90;;;;;;5096251;28;20488;-50
2022/08/26 11:14:31;;;;;;;16.73;15.13;;;24.60;99.90;;;;;;5096965;28;20467;-54
2022/08/26 11:17:00;;;;;;;14.77;13.50;;;24.00;99.90;;;;;;5092905;28;20460;-51
2022/08/26 11:20:04;;;;;;;13.30;12.20;;;24.00;99.90;;;;;;5095277;28;20459;-52
2022/08/26 11:22:37;;;;;;;14.57;13.03;;;24.20;99.90;;;;;;5018041;28;20771;-52
2022/08/26 11:25:11;;;;;;;12.87;11.60;;;23.80;99.90;;;;;;5084436;28;20456;-55
2022/08/26 11:28:03;;;;;;;15.83;14.10;;;23.40;99.90;;;;;;5092234;28;20467;-50
2022/08/26 11:30:52;;;;;;;14.53;12.90;;;23.30;99.90;;;;;;5080545;28;20468;-52
2022/08/26 11:33:58;;;;;;;14.83;13.40;;;23.20;99.90;;;;;;5074257;28;20934;-54
2022/08/26 11:36:52;;;;;;;15.60;14.10;;;23.10;99.90;;;;;;5086165;28;20847;-54
2022/08/26 11:39:28;;;;;;;14.40;12.83;;;23.20;99.90;;;;;;5095312;28;20632;-49
2022/08/26 11:42:01;;;;;;;13.80;12.60;;;23.00;99.90;;;;;;5094009;28;20460;-55
2022/08/26 11:44:38;;;;;;;16.83;15.33;;;23.20;99.90;;;;;;5097196;28;20468;-54
2022/08/26 11:47:18;;;;;;;16.07;14.10;;;23.10;99.90;;;;;;5098536;28;20964;-54
2022/08/26 11:49:45;;;;;;;19.03;16.97;;;23.00;99.90;;;;;;5100436;28;20463;-56
2022/08/26 11:52:19;;;;;;;20.33;16.63;;;23.00;99.90;;;;;;5098358;28;20485;-51
2022/08/26 11:55:04;;;;;;;21.50;19.70;;;22.90;99.90;;;;;;5098091;28;20540;-53
2022/08/26 11:57:34;;;;;;;23.30;21.17;;;22.90;99.90;;;;;;5097336;28;20503;-56
2022/08/26 12:00:08;;;;;;;23.87;21.57;;;22.90;99.90;;;;;;5097615;28;20452;-51
2022/08/26 12:02:45;;;;;;;24.73;20.80;;;23.10;99.90;;;;;;5094441;28;20471;-54
2022/08/26 12:05:17;;;;;;;22.00;19.80;;;23.40;99.90;;;;;;5098493;28;20458;-50
2022/08/26 12:07:50;;;;;;;19.83;17.83;;;23.50;99.90;;;;;;5098570;28;20457;-56
2022/08/26 12:10:28;;;;;;;19.63;17.83;;;23.70;99.90;;;;;;5095885;28;20852;-57
2022/08/26 12:13:01;;;;;;;18.47;16.80;;;23.90;99.90;;;;;;5092289;28;20545;-54
2022/08/26 12:15:33;;;;;;;18.70;16.90;;;23.90;99.90;;;;;;5098619;28;20529;-53
2022/08/26 12:18:20;;;;;;;16.83;15.33;;;23.70;99.90;;;;;;5095861;28;20465;-55
2022/08/26 12:20:52;;;;;;;19.10;17.40;;;23.70;99.90;;;;;;5097408;28;20476;-57
2022/08/26 12:23:41;;;;;;;21.07;18.50;;;23.50;99.90;;;;;;5095311;28;20521;-55
2022/08/26 12:26:11;;;;;;;19.53;17.83;;;23.40;99.90;;;;;;5097363;28;20551;-54
2022/08/26 12:28:48;;;;;;;18.87;17.20;;;23.80;99.90;;;;;;5095538;28;20609;-55
2022/08/26 12:31:25;;;;;;;18.17;16.63;;;23.70;99.90;;;;;;5095944;28;20484;-55
2022/08/26 12:33:54;;;;;;;17.60;15.87;;;24.00;99.90;;;;;;5091755;28;20510;-51
2022/08/26 12:36:26;;;;;;;17.60;16.20;;;24.10;99.90;;;;;;5090742;28;20476;-57
2022/08/26 12:38:55;;;;;;;17.47;15.97;;;24.00;99.90;;;;;;5095539;28;20457;-53
2022/08/26 12:41:43;;;;;;;16.40;15.00;;;24.00;99.90;;;;;;5097856;28;20460;-52
2022/08/26 12:44:32;;;;;;;15.13;13.90;;;23.60;99.90;;;;;;5097312;28;20506;-56
2022/08/26 12:47:10;;;;;;;13.63;12.20;;;23.50;99.90;;;;;;5095121;28;20545;-51
2022/08/26 12:49:39;;;;;;;12.77;11.67;;;23.50;99.90;;;;;;5094807;28;20951;-50
2022/08/26 12:52:28;;;;;;;13.90;12.07;;;23.70;99.90;;;;;;5097122;28;20484;-57
2022/08/26 12:55:01;;;;;;;13.93;11.63;;;23.50;99.90;;;;;;5095019;28;20472;-56
2022/08/26 12:57:33;;;;;;;12.13;10.83;;;23.70;99.90;;;;;;5097062;28;20509;-52
2022/08/26 13:00:40;;;;;;;20.20;12.60;;;23.90;99.90;;;;;;5095998;28;20502;-52
2022/08/26 13:03:30;;;;;;;11.70;10.57;;;23.60;99.90;;;;;;5091465;28;20568;-53
2022/08/26 13:06:26;;;;;;;13.23;11.73;;;23.30;99.90;;;;;;5089410;28;20492;-51